sensor_id;sensor_type;location;lat;lon;timestamp;temperature;humidity
3350;DHT22;1688;51.000;13.684;2022-08-19T00:01:43;23.40;99.90
3350;DHT22;1688;51.000;13.684;2022-08-19T00:04:13;23.40;99.90
3350;DHT22;1688;51.000;13.684;2022-08-19T00:06:44;23.30;99.90
3350;DHT22;1688;51.000;13.684;2022-08-19T00:09:15;23.30;99.90
3350;DHT22;1688;51.000;13.684;2022-08-19T00:11:43;23.20;99.90
3350;DHT22;1688;51.000;13.684;2022-08-19T00:14:11;23.20;99.90
3350;DHT22;1688;51.000;13.684;2022-08-19T00:16:38;23.20;99.90
3350;DHT22;1688;51.000;13.684;2022-08-19T00:19:05;23.10;99.90
3350;DHT22;1688;51.000;13.684;2022-08-19T00:21:31;23.10;99.90
3350;DHT22;1688;51.000;13.684;2022-08-19T00:23:58;23.10;99.90
3350;DHT22;1688;51.000;13.684;2022-08-19T00:26:26;23.10;99.90
3350;DHT22;1688;51.000;13.684;2022-08-19T00:28:53;23.10;99.90
3350;DHT22;1688;51.000;13.684;2022-08-19T00:31:19;23.00;99.90
3350;DHT22;1688;51.000;13.684;2022-08-19T00:33:46;22.90;99.90
3350;DHT22;1688;51.000;13.684;2022-08-19T00:36:13;22.90;99.90
3350;DHT22;1688;51.000;13.684;2022-08-19T00:38:39;22.90;99.90
3350;DHT22;1688;51.000;13.684;2022-08-19T00:41:19;22.90;99.90
3350;DHT22;1688;51.000;13.684;2022-08-19T00:44:09;22.90;99.90
3350;DHT22;1688;51.000;13.684;2022-08-19T00:46:37;22.90;99.90
3350;DHT22;1688;51.000;13.684;2022-08-19T00:51:43;22.80;99.90
3350;DHT22;1688;51.000;13.684;2022-08-19T00:54:10;22.80;99.90
3350;DHT22;1688;51.000;13.684;2022-08-19T00:56:36;22.60;99.90
3350;DHT22;1688;51.000;13.684;2022-08-19T00:59:04;22.60;99.90
3350;DHT22;1688;51.000;13.684;2022-08-19T01:01:39;22.60;99.90
3350;DHT22;1688;51.000;13.684;2022-08-19T01:04:06;22.60;99.90
3350;DHT22;1688;51.000;13.684;2022-08-19T01:06:33;22.60;99.90
3350;DHT22;1688;51.000;13.684;2022-08-19T01:09:01;22.70;99.90
3350;DHT22;1688;51.000;13.684;2022-08-19T01:11:27;22.70;99.90
3350;DHT22;1688;51.000;13.684;2022-08-19T01:13:54;22.70;99.90
3350;DHT22;1688;51.000;13.684;2022-08-19T01:16:22;22.70;99.90
3350;DHT22;1688;51.000;13.684;2022-08-19T01:18:49;22.80;99.90
3350;DHT22;1688;51.000;13.684;2022-08-19T01:21:27;22.80;99.90
3350;DHT22;1688;51.000;13.684;2022-08-19T01:23:55;22.80;99.90
3350;DHT22;1688;51.000;13.684;2022-08-19T01:26:23;22.80;99.90
3350;DHT22;1688;51.000;13.684;2022-08-19T01:28:53;22.80;99.90
3350;DHT22;1688;51.000;13.684;2022-08-19T01:31:23;22.70;99.90
3350;DHT22;1688;51.000;13.684;2022-08-19T01:33:50;22.70;99.90
3350;DHT22;1688;51.000;13.684;2022-08-19T01:36:39;22.70;99.90
3350;DHT22;1688;51.000;13.684;2022-08-19T01:39:12;22.70;99.90
3350;DHT22;1688;51.000;13.684;2022-08-19T01:41:38;22.80;99.90
3350;DHT22;1688;51.000;13.684;2022-08-19T01:44:07;22.70;99.90
3350;DHT22;1688;51.000;13.684;2022-08-19T01:46:33;22.70;99.90
3350;DHT22;1688;51.000;13.684;2022-08-19T01:48:59;22.70;99.90
3350;DHT22;1688;51.000;13.684;2022-08-19T01:51:27;22.70;99.90
3350;DHT22;1688;51.000;13.684;2022-08-19T01:53:53;22.70;99.90
3350;DHT22;1688;51.000;13.684;2022-08-19T01:56:19;22.70;99.90
3350;DHT22;1688;51.000;13.684;2022-08-19T01:58:51;22.70;99.90
3350;DHT22;1688;51.000;13.684;2022-08-19T02:01:19;22.70;99.90
3350;DHT22;1688;51.000;13.684;2022-08-19T02:03:45;22.80;99.90
3350;DHT22;1688;51.000;13.684;2022-08-19T02:06:11;22.70;99.90
3350;DHT22;1688;51.000;13.684;2022-08-19T02:08:38;22.80;99.90
3350;DHT22;1688;51.000;13.684;2022-08-19T02:11:07;22.80;99.90
3350;DHT22;1688;51.000;13.684;2022-08-19T02:13:33;22.70;99.90
3350;DHT22;1688;51.000;13.684;2022-08-19T02:15:59;22.60;99.90
3350;DHT22;1688;51.000;13.684;2022-08-19T02:18:25;22.50;99.90
3350;DHT22;1688;51.000;13.684;2022-08-19T02:20:52;22.50;99.90
3350;DHT22;1688;51.000;13.684;2022-08-19T02:23:18;22.60;99.90
3350;DHT22;1688;51.000;13.684;2022-08-19T02:25:45;22.60;99.90
3350;DHT22;1688;51.000;13.684;2022-08-19T02:28:12;22.60;99.90
3350;DHT22;1688;51.000;13.684;2022-08-19T02:30:38;22.70;99.90
3350;DHT22;1688;51.000;13.684;2022-08-19T02:33:05;22.70;99.90
3350;DHT22;1688;51.000;13.684;2022-08-19T02:35:31;22.80;99.90
3350;DHT22;1688;51.000;13.684;2022-08-19T02:37:57;22.80;99.90
3350;DHT22;1688;51.000;13.684;2022-08-19T02:40:48;22.80;99.90
3350;DHT22;1688;51.000;13.684;2022-08-19T02:43:16;22.90;99.90
3350;DHT22;1688;51.000;13.684;2022-08-19T02:45:42;22.90;99.90
3350;DHT22;1688;51.000;13.684;2022-08-19T02:48:08;22.90;99.90
3350;DHT22;1688;51.000;13.684;2022-08-19T02:50:38;22.90;99.90
3350;DHT22;1688;51.000;13.684;2022-08-19T02:53:04;22.80;99.90
3350;DHT22;1688;51.000;13.684;2022-08-19T02:55:31;22.80;99.90
3350;DHT22;1688;51.000;13.684;2022-08-19T02:57:57;22.70;99.90
3350;DHT22;1688;51.000;13.684;2022-08-19T03:00:23;22.70;99.90
3350;DHT22;1688;51.000;13.684;2022-08-19T03:02:50;22.70;99.90
3350;DHT22;1688;51.000;13.684;2022-08-19T03:05:16;22.70;99.90
3350;DHT22;1688;51.000;13.684;2022-08-19T03:07:42;22.70;99.90
3350;DHT22;1688;51.000;13.684;2022-08-19T03:10:10;22.70;99.90
3350;DHT22;1688;51.000;13.684;2022-08-19T03:12:37;22.70;99.90
3350;DHT22;1688;51.000;13.684;2022-08-19T03:15:07;22.50;99.90
3350;DHT22;1688;51.000;13.684;2022-08-19T03:17:34;22.60;99.90
3350;DHT22;1688;51.000;13.684;2022-08-19T03:20:00;22.70;99.90
3350;DHT22;1688;51.000;13.684;2022-08-19T03:22:26;22.70;99.90
3350;DHT22;1688;51.000;13.684;2022-08-19T03:24:52;22.60;99.90
3350;DHT22;1688;51.000;13.684;2022-08-19T03:27:19;22.50;99.90
3350;DHT22;1688;51.000;13.684;2022-08-19T03:29:44;22.50;99.90
3350;DHT22;1688;51.000;13.684;2022-08-19T03:32:11;22.50;99.90
3350;DHT22;1688;51.000;13.684;2022-08-19T03:34:38;22.50;99.90
3350;DHT22;1688;51.000;13.684;2022-08-19T03:37:10;22.50;99.90
3350;DHT22;1688;51.000;13.684;2022-08-19T03:39:38;22.60;99.90
3350;DHT22;1688;51.000;13.684;2022-08-19T03:42:05;22.60;99.90
3350;DHT22;1688;51.000;13.684;2022-08-19T03:44:31;22.60;99.90
3350;DHT22;1688;51.000;13.684;2022-08-19T03:46:59;22.60;99.90
3350;DHT22;1688;51.000;13.684;2022-08-19T03:49:28;22.70;99.90
3350;DHT22;1688;51.000;13.684;2022-08-19T03:51:55;22.70;99.90
3350;DHT22;1688;51.000;13.684;2022-08-19T03:54:23;22.80;99.90
3350;DHT22;1688;51.000;13.684;2022-08-19T03:56:50;22.80;99.90
3350;DHT22;1688;51.000;13.684;2022-08-19T03:59:20;22.80;99.90
3350;DHT22;1688;51.000;13.684;2022-08-19T04:01:46;22.80;99.90
3350;DHT22;1688;51.000;13.684;2022-08-19T04:04:12;22.80;99.90
3350;DHT22;1688;51.000;13.684;2022-08-19T04:06:38;22.80;99.90
3350;DHT22;1688;51.000;13.684;2022-08-19T04:09:07;22.80;99.90
3350;DHT22;1688;51.000;13.684;2022-08-19T04:11:39;22.80;99.90
3350;DHT22;1688;51.000;13.684;2022-08-19T04:14:14;22.80;99.90
3350;DHT22;1688;51.000;13.684;2022-08-19T04:16:41;22.80;99.90
3350;DHT22;1688;51.000;13.684;2022-08-19T04:19:08;22.80;99.90
3350;DHT22;1688;51.000;13.684;2022-08-19T04:21:34;22.80;99.90
3350;DHT22;1688;51.000;13.684;2022-08-19T04:24:00;22.80;99.90
3350;DHT22;1688;51.000;13.684;2022-08-19T04:26:31;22.80;99.90
3350;DHT22;1688;51.000;13.684;2022-08-19T04:29:02;22.80;99.90
3350;DHT22;1688;51.000;13.684;2022-08-19T04:31:32;22.80;99.90
3350;DHT22;1688;51.000;13.684;2022-08-19T04:34:02;22.90;99.90
3350;DHT22;1688;51.000;13.684;2022-08-19T04:36:32;22.90;99.90
3350;DHT22;1688;51.000;13.684;2022-08-19T04:39:04;22.90;99.90
3350;DHT22;1688;51.000;13.684;2022-08-19T04:41:30;22.90;99.90
3350;DHT22;1688;51.000;13.684;2022-08-19T04:44:15;22.90;99.90
3350;DHT22;1688;51.000;13.684;2022-08-19T04:46:44;22.90;99.90
3350;DHT22;1688;51.000;13.684;2022-08-19T04:49:10;22.90;99.90
3350;DHT22;1688;51.000;13.684;2022-08-19T04:51:40;22.90;99.90
3350;DHT22;1688;51.000;13.684;2022-08-19T04:54:06;22.90;99.90
3350;DHT22;1688;51.000;13.684;2022-08-19T04:56:33;23.00;99.90
3350;DHT22;1688;51.000;13.684;2022-08-19T04:58:59;23.00;99.90
3350;DHT22;1688;51.000;13.684;2022-08-19T05:01:34;23.00;99.90
3350;DHT22;1688;51.000;13.684;2022-08-19T05:04:03;23.00;99.90
3350;DHT22;1688;51.000;13.684;2022-08-19T05:06:31;23.00;99.90
3350;DHT22;1688;51.000;13.684;2022-08-19T05:09:00;23.00;99.90
3350;DHT22;1688;51.000;13.684;2022-08-19T05:11:29;22.90;99.90
3350;DHT22;1688;51.000;13.684;2022-08-19T05:13:56;22.90;99.90
3350;DHT22;1688;51.000;13.684;2022-08-19T05:16:23;22.90;99.90
3350;DHT22;1688;51.000;13.684;2022-08-19T05:18:49;22.90;99.90
3350;DHT22;1688;51.000;13.684;2022-08-19T05:21:34;22.90;99.90
3350;DHT22;1688;51.000;13.684;2022-08-19T05:24:21;22.80;99.90
3350;DHT22;1688;51.000;13.684;2022-08-19T05:26:49;22.70;99.90
3350;DHT22;1688;51.000;13.684;2022-08-19T05:29:19;22.70;99.90
3350;DHT22;1688;51.000;13.684;2022-08-19T05:31:47;22.70;99.90
3350;DHT22;1688;51.000;13.684;2022-08-19T05:34:16;22.70;99.90
3350;DHT22;1688;51.000;13.684;2022-08-19T05:36:44;22.50;99.90
3350;DHT22;1688;51.000;13.684;2022-08-19T05:39:18;22.50;99.90
3350;DHT22;1688;51.000;13.684;2022-08-19T05:41:46;22.60;99.90
3350;DHT22;1688;51.000;13.684;2022-08-19T05:44:14;22.60;99.90
3350;DHT22;1688;51.000;13.684;2022-08-19T05:46:43;22.60;99.90
3350;DHT22;1688;51.000;13.684;2022-08-19T05:49:09;22.60;99.90
3350;DHT22;1688;51.000;13.684;2022-08-19T05:51:36;22.60;99.90
3350;DHT22;1688;51.000;13.684;2022-08-19T05:54:06;22.60;99.90
3350;DHT22;1688;51.000;13.684;2022-08-19T05:56:33;22.60;99.90
3350;DHT22;1688;51.000;13.684;2022-08-19T05:59:04;22.60;99.90
3350;DHT22;1688;51.000;13.684;2022-08-19T06:01:34;22.50;99.90
3350;DHT22;1688;51.000;13.684;2022-08-19T06:04:00;22.50;99.90
3350;DHT22;1688;51.000;13.684;2022-08-19T06:06:26;22.40;99.90
3350;DHT22;1688;51.000;13.684;2022-08-19T06:08:52;22.40;99.90
3350;DHT22;1688;51.000;13.684;2022-08-19T06:11:37;22.40;99.90
3350;DHT22;1688;51.000;13.684;2022-08-19T06:14:06;22.50;99.90
3350;DHT22;1688;51.000;13.684;2022-08-19T06:16:35;22.50;99.90
3350;DHT22;1688;51.000;13.684;2022-08-19T06:19:05;22.40;99.90
3350;DHT22;1688;51.000;13.684;2022-08-19T06:21:35;22.40;99.90
3350;DHT22;1688;51.000;13.684;2022-08-19T06:24:04;22.40;99.90
3350;DHT22;1688;51.000;13.684;2022-08-19T06:26:30;22.40;99.90
3350;DHT22;1688;51.000;13.684;2022-08-19T06:28:56;22.40;99.90
3350;DHT22;1688;51.000;13.684;2022-08-19T06:31:25;22.40;99.90
3350;DHT22;1688;51.000;13.684;2022-08-19T06:33:51;22.40;99.90
3350;DHT22;1688;51.000;13.684;2022-08-19T06:36:27;22.50;99.90
3350;DHT22;1688;51.000;13.684;2022-08-19T06:39:08;22.50;99.90
3350;DHT22;1688;51.000;13.684;2022-08-19T06:41:37;22.60;99.90
3350;DHT22;1688;51.000;13.684;2022-08-19T06:44:04;22.60;99.90
3350;DHT22;1688;51.000;13.684;2022-08-19T06:46:30;22.60;99.90
3350;DHT22;1688;51.000;13.684;2022-08-19T06:48:57;22.50;99.90
3350;DHT22;1688;51.000;13.684;2022-08-19T06:51:23;22.50;99.90
3350;DHT22;1688;51.000;13.684;2022-08-19T06:53:52;22.50;99.90
3350;DHT22;1688;51.000;13.684;2022-08-19T06:56:24;22.50;99.90
3350;DHT22;1688;51.000;13.684;2022-08-19T06:58:51;22.40;99.90
3350;DHT22;1688;51.000;13.684;2022-08-19T07:01:19;22.40;99.90
3350;DHT22;1688;51.000;13.684;2022-08-19T07:03:46;22.40;99.90
3350;DHT22;1688;51.000;13.684;2022-08-19T07:06:16;22.40;99.90
3350;DHT22;1688;51.000;13.684;2022-08-19T07:08:47;22.40;99.90
3350;DHT22;1688;51.000;13.684;2022-08-19T07:11:15;22.30;99.90
3350;DHT22;1688;51.000;13.684;2022-08-19T07:13:43;22.30;99.90
3350;DHT22;1688;51.000;13.684;2022-08-19T07:16:16;22.30;99.90
3350;DHT22;1688;51.000;13.684;2022-08-19T07:18:43;22.30;99.90
3350;DHT22;1688;51.000;13.684;2022-08-19T07:21:19;22.20;99.90
3350;DHT22;1688;51.000;13.684;2022-08-19T07:23:45;22.30;99.90
3350;DHT22;1688;51.000;13.684;2022-08-19T07:26:17;22.20;99.90
3350;DHT22;1688;51.000;13.684;2022-08-19T07:28:43;22.20;99.90
3350;DHT22;1688;51.000;13.684;2022-08-19T07:31:11;22.20;99.90
3350;DHT22;1688;51.000;13.684;2022-08-19T07:33:39;22.20;99.90
3350;DHT22;1688;51.000;13.684;2022-08-19T07:36:08;22.10;99.90
3350;DHT22;1688;51.000;13.684;2022-08-19T07:38:38;22.00;99.90
3350;DHT22;1688;51.000;13.684;2022-08-19T07:41:07;22.10;99.90
3350;DHT22;1688;51.000;13.684;2022-08-19T07:43:32;22.00;99.90
3350;DHT22;1688;51.000;13.684;2022-08-19T07:45:58;21.90;99.90
3350;DHT22;1688;51.000;13.684;2022-08-19T07:48:27;21.90;99.90
3350;DHT22;1688;51.000;13.684;2022-08-19T07:50:56;21.90;99.90
3350;DHT22;1688;51.000;13.684;2022-08-19T07:53:24;21.90;99.90
3350;DHT22;1688;51.000;13.684;2022-08-19T07:55:50;21.90;99.90
3350;DHT22;1688;51.000;13.684;2022-08-19T07:58:21;21.90;99.90
3350;DHT22;1688;51.000;13.684;2022-08-19T08:00:49;21.90;99.90
3350;DHT22;1688;51.000;13.684;2022-08-19T08:03:18;21.80;99.90
3350;DHT22;1688;51.000;13.684;2022-08-19T08:05:44;21.80;99.90
3350;DHT22;1688;51.000;13.684;2022-08-19T08:08:29;21.70;99.90
3350;DHT22;1688;51.000;13.684;2022-08-19T08:11:15;21.70;99.90
3350;DHT22;1688;51.000;13.684;2022-08-19T08:13:41;21.70;99.90
3350;DHT22;1688;51.000;13.684;2022-08-19T08:16:07;21.70;99.90
3350;DHT22;1688;51.000;13.684;2022-08-19T08:18:33;21.70;99.90
3350;DHT22;1688;51.000;13.684;2022-08-19T08:21:07;21.70;99.90
3350;DHT22;1688;51.000;13.684;2022-08-19T08:23:34;21.80;99.90
3350;DHT22;1688;51.000;13.684;2022-08-19T08:26:00;21.80;99.90
3350;DHT22;1688;51.000;13.684;2022-08-19T08:28:28;21.80;99.90
3350;DHT22;1688;51.000;13.684;2022-08-19T08:30:55;21.80;99.90
3350;DHT22;1688;51.000;13.684;2022-08-19T08:33:26;21.90;99.90
3350;DHT22;1688;51.000;13.684;2022-08-19T08:35:52;21.90;99.90
3350;DHT22;1688;51.000;13.684;2022-08-19T08:38:18;21.90;99.90
3350;DHT22;1688;51.000;13.684;2022-08-19T08:40:49;22.00;99.90
3350;DHT22;1688;51.000;13.684;2022-08-19T08:43:30;22.00;99.90
3350;DHT22;1688;51.000;13.684;2022-08-19T08:46:05;22.10;99.90
3350;DHT22;1688;51.000;13.684;2022-08-19T08:51:07;22.20;99.90
3350;DHT22;1688;51.000;13.684;2022-08-19T08:53:35;22.20;99.90
3350;DHT22;1688;51.000;13.684;2022-08-19T08:56:03;22.20;99.90
3350;DHT22;1688;51.000;13.684;2022-08-19T08:58:51;22.20;99.90
3350;DHT22;1688;51.000;13.684;2022-08-19T09:01:16;22.20;99.90
3350;DHT22;1688;51.000;13.684;2022-08-19T09:03:43;22.20;99.90
3350;DHT22;1688;51.000;13.684;2022-08-19T09:06:29;22.20;99.90
3350;DHT22;1688;51.000;13.684;2022-08-19T09:09:05;22.30;99.90
3350;DHT22;1688;51.000;13.684;2022-08-19T09:16:47;22.50;99.90
3350;DHT22;1688;51.000;13.684;2022-08-19T09:19:15;22.50;99.90
3350;DHT22;1688;51.000;13.684;2022-08-19T09:21:43;22.60;99.90
3350;DHT22;1688;51.000;13.684;2022-08-19T09:24:09;22.70;99.90
3350;DHT22;1688;51.000;13.684;2022-08-19T09:26:35;22.80;99.90
3350;DHT22;1688;51.000;13.684;2022-08-19T09:29:00;22.90;99.90
3350;DHT22;1688;51.000;13.684;2022-08-19T09:31:29;23.00;99.90
3350;DHT22;1688;51.000;13.684;2022-08-19T09:33:55;23.10;99.90
3350;DHT22;1688;51.000;13.684;2022-08-19T09:36:31;23.10;99.90
3350;DHT22;1688;51.000;13.684;2022-08-19T09:38:59;23.10;99.90
3350;DHT22;1688;51.000;13.684;2022-08-19T09:41:26;23.30;99.90
3350;DHT22;1688;51.000;13.684;2022-08-19T09:43:55;23.40;99.90
3350;DHT22;1688;51.000;13.684;2022-08-19T09:46:23;23.60;99.90
3350;DHT22;1688;51.000;13.684;2022-08-19T09:48:50;23.70;99.90
3350;DHT22;1688;51.000;13.684;2022-08-19T09:51:23;23.80;99.90
3350;DHT22;1688;51.000;13.684;2022-08-19T09:53:51;23.80;99.90
3350;DHT22;1688;51.000;13.684;2022-08-19T09:56:20;23.90;99.90
3350;DHT22;1688;51.000;13.684;2022-08-19T09:58:48;23.90;99.90
3350;DHT22;1688;51.000;13.684;2022-08-19T10:01:24;23.90;99.90
3350;DHT22;1688;51.000;13.684;2022-08-19T10:03:53;23.80;99.90
3350;DHT22;1688;51.000;13.684;2022-08-19T10:06:21;23.80;99.90
3350;DHT22;1688;51.000;13.684;2022-08-19T10:08:48;23.90;99.90
3350;DHT22;1688;51.000;13.684;2022-08-19T10:11:14;23.90;99.90
3350;DHT22;1688;51.000;13.684;2022-08-19T10:13:45;23.90;99.90
3350;DHT22;1688;51.000;13.684;2022-08-19T10:16:14;24.10;99.90
3350;DHT22;1688;51.000;13.684;2022-08-19T10:18:42;24.30;99.90
3350;DHT22;1688;51.000;13.684;2022-08-19T10:21:16;24.50;99.90
3350;DHT22;1688;51.000;13.684;2022-08-19T10:23:44;24.60;99.90
3350;DHT22;1688;51.000;13.684;2022-08-19T10:26:13;24.80;99.90
3350;DHT22;1688;51.000;13.684;2022-08-19T10:28:39;24.80;99.90
3350;DHT22;1688;51.000;13.684;2022-08-19T10:31:12;24.80;99.90
3350;DHT22;1688;51.000;13.684;2022-08-19T10:33:39;24.70;99.90
3350;DHT22;1688;51.000;13.684;2022-08-19T10:36:10;24.60;99.90
3350;DHT22;1688;51.000;13.684;2022-08-19T10:38:37;24.50;99.90
3350;DHT22;1688;51.000;13.684;2022-08-19T10:41:11;24.50;99.90
3350;DHT22;1688;51.000;13.684;2022-08-19T10:43:37;24.40;99.90
3350;DHT22;1688;51.000;13.684;2022-08-19T10:46:16;24.50;99.90
3350;DHT22;1688;51.000;13.684;2022-08-19T10:48:43;24.60;99.90
3350;DHT22;1688;51.000;13.684;2022-08-19T10:51:11;24.70;99.90
3350;DHT22;1688;51.000;13.684;2022-08-19T10:53:57;24.80;99.90
3350;DHT22;1688;51.000;13.684;2022-08-19T10:56:23;25.00;99.90
3350;DHT22;1688;51.000;13.684;2022-08-19T10:59:09;25.00;99.90
3350;DHT22;1688;51.000;13.684;2022-08-19T11:01:35;25.10;99.90
3350;DHT22;1688;51.000;13.684;2022-08-19T11:04:03;25.10;99.90
3350;DHT22;1688;51.000;13.684;2022-08-19T11:06:29;25.10;99.90
3350;DHT22;1688;51.000;13.684;2022-08-19T11:08:56;25.00;99.90
3350;DHT22;1688;51.000;13.684;2022-08-19T11:11:23;25.10;99.90
3350;DHT22;1688;51.000;13.684;2022-08-19T11:13:49;25.20;99.90
3350;DHT22;1688;51.000;13.684;2022-08-19T11:16:18;25.30;99.90
3350;DHT22;1688;51.000;13.684;2022-08-19T11:18:53;25.40;99.90
3350;DHT22;1688;51.000;13.684;2022-08-19T11:21:31;25.40;99.90
3350;DHT22;1688;51.000;13.684;2022-08-19T11:23:59;25.40;99.90
3350;DHT22;1688;51.000;13.684;2022-08-19T11:26:27;25.30;99.90
3350;DHT22;1688;51.000;13.684;2022-08-19T11:28:53;25.40;99.90
3350;DHT22;1688;51.000;13.684;2022-08-19T11:31:25;25.40;99.90
3350;DHT22;1688;51.000;13.684;2022-08-19T11:33:51;25.50;99.90
3350;DHT22;1688;51.000;13.684;2022-08-19T11:36:20;25.50;99.90
3350;DHT22;1688;51.000;13.684;2022-08-19T11:38:48;25.50;99.90
3350;DHT22;1688;51.000;13.684;2022-08-19T11:41:15;25.60;99.90
3350;DHT22;1688;51.000;13.684;2022-08-19T11:43:42;25.60;99.90
3350;DHT22;1688;51.000;13.684;2022-08-19T11:46:10;25.60;99.90
3350;DHT22;1688;51.000;13.684;2022-08-19T11:48:38;25.60;99.90
3350;DHT22;1688;51.000;13.684;2022-08-19T11:51:07;25.60;99.90
3350;DHT22;1688;51.000;13.684;2022-08-19T11:53:34;25.50;99.90
3350;DHT22;1688;51.000;13.684;2022-08-19T11:56:01;25.50;99.90
3350;DHT22;1688;51.000;13.684;2022-08-19T11:58:30;25.40;99.90
3350;DHT22;1688;51.000;13.684;2022-08-19T12:00:56;25.30;99.90
3350;DHT22;1688;51.000;13.684;2022-08-19T12:03:22;25.30;99.90
3350;DHT22;1688;51.000;13.684;2022-08-19T12:05:48;25.30;99.90
3350;DHT22;1688;51.000;13.684;2022-08-19T12:08:16;25.30;99.90
3350;DHT22;1688;51.000;13.684;2022-08-19T12:10:43;25.30;99.90
3350;DHT22;1688;51.000;13.684;2022-08-19T12:13:10;25.40;99.90
3350;DHT22;1688;51.000;13.684;2022-08-19T12:15:39;25.30;99.90
3350;DHT22;1688;51.000;13.684;2022-08-19T12:18:09;25.10;99.90
3350;DHT22;1688;51.000;13.684;2022-08-19T12:20:39;25.00;99.90
3350;DHT22;1688;51.000;13.684;2022-08-19T12:23:06;25.00;99.90
3350;DHT22;1688;51.000;13.684;2022-08-19T12:25:43;24.90;99.90
3350;DHT22;1688;51.000;13.684;2022-08-19T12:28:13;24.80;99.90
3350;DHT22;1688;51.000;13.684;2022-08-19T12:30:39;24.80;99.90
3350;DHT22;1688;51.000;13.684;2022-08-19T12:33:06;24.60;99.90
3350;DHT22;1688;51.000;13.684;2022-08-19T12:35:33;24.60;99.90
3350;DHT22;1688;51.000;13.684;2022-08-19T12:37:59;24.70;99.90
3350;DHT22;1688;51.000;13.684;2022-08-19T12:40:27;24.80;99.90
3350;DHT22;1688;51.000;13.684;2022-08-19T12:42:53;24.90;99.90
3350;DHT22;1688;51.000;13.684;2022-08-19T12:45:19;24.90;99.90
3350;DHT22;1688;51.000;13.684;2022-08-19T12:47:45;24.90;99.90
3350;DHT22;1688;51.000;13.684;2022-08-19T12:50:12;24.80;99.90
3350;DHT22;1688;51.000;13.684;2022-08-19T12:52:38;24.70;99.90
3350;DHT22;1688;51.000;13.684;2022-08-19T12:55:07;24.60;99.90
3350;DHT22;1688;51.000;13.684;2022-08-19T12:57:33;24.50;99.90
3350;DHT22;1688;51.000;13.684;2022-08-19T13:00:13;24.40;99.90
3350;DHT22;1688;51.000;13.684;2022-08-19T13:02:41;24.30;99.90
3350;DHT22;1688;51.000;13.684;2022-08-19T13:05:12;24.30;99.90
3350;DHT22;1688;51.000;13.684;2022-08-19T13:07:39;24.30;99.90
3350;DHT22;1688;51.000;13.684;2022-08-19T13:10:13;24.30;99.90
3350;DHT22;1688;51.000;13.684;2022-08-19T13:12:41;24.30;99.90
3350;DHT22;1688;51.000;13.684;2022-08-19T13:15:08;24.30;99.90
3350;DHT22;1688;51.000;13.684;2022-08-19T13:17:35;24.30;99.90
3350;DHT22;1688;51.000;13.684;2022-08-19T13:20:01;24.30;99.90
3350;DHT22;1688;51.000;13.684;2022-08-19T13:22:27;24.20;99.90
3350;DHT22;1688;51.000;13.684;2022-08-19T13:24:53;24.10;99.90
3350;DHT22;1688;51.000;13.684;2022-08-19T13:27:19;24.00;99.90
3350;DHT22;1688;51.000;13.684;2022-08-19T13:29:44;24.00;99.90
3350;DHT22;1688;51.000;13.684;2022-08-19T13:32:30;24.00;99.90
3350;DHT22;1688;51.000;13.684;2022-08-19T13:35:15;24.00;99.90
3350;DHT22;1688;51.000;13.684;2022-08-19T13:37:41;24.00;99.90
3350;DHT22;1688;51.000;13.684;2022-08-19T13:40:22;24.00;99.90
3350;DHT22;1688;51.000;13.684;2022-08-19T13:42:51;23.80;99.90
3350;DHT22;1688;51.000;13.684;2022-08-19T13:45:23;23.80;99.90
3350;DHT22;1688;51.000;13.684;2022-08-19T13:47:52;23.80;99.90
3350;DHT22;1688;51.000;13.684;2022-08-19T13:50:25;23.70;99.90
3350;DHT22;1688;51.000;13.684;2022-08-19T13:52:52;23.50;99.90
3350;DHT22;1688;51.000;13.684;2022-08-19T13:55:19;23.30;99.90
3350;DHT22;1688;51.000;13.684;2022-08-19T13:57:45;23.30;99.90
3350;DHT22;1688;51.000;13.684;2022-08-19T14:00:16;23.30;99.90
3350;DHT22;1688;51.000;13.684;2022-08-19T14:02:44;23.40;99.90
3350;DHT22;1688;51.000;13.684;2022-08-19T14:05:12;23.40;99.90
3350;DHT22;1688;51.000;13.684;2022-08-19T14:07:39;23.40;99.90
3350;DHT22;1688;51.000;13.684;2022-08-19T14:10:07;23.40;99.90
3350;DHT22;1688;51.000;13.684;2022-08-19T14:12:35;23.40;99.90
3350;DHT22;1688;51.000;13.684;2022-08-19T14:15:03;23.50;99.90
3350;DHT22;1688;51.000;13.684;2022-08-19T14:17:29;23.50;99.90
3350;DHT22;1688;51.000;13.684;2022-08-19T14:19:59;23.50;99.90
3350;DHT22;1688;51.000;13.684;2022-08-19T14:22:32;23.60;99.90
3350;DHT22;1688;51.000;13.684;2022-08-19T14:24:57;23.70;99.90
3350;DHT22;1688;51.000;13.684;2022-08-19T14:27:24;23.70;99.90
3350;DHT22;1688;51.000;13.684;2022-08-19T14:29:54;23.70;99.90
3350;DHT22;1688;51.000;13.684;2022-08-19T14:32:20;23.70;99.90
3350;DHT22;1688;51.000;13.684;2022-08-19T14:34:47;23.70;99.90
3350;DHT22;1688;51.000;13.684;2022-08-19T14:37:14;23.70;99.90
3350;DHT22;1688;51.000;13.684;2022-08-19T14:39:43;23.80;99.90
3350;DHT22;1688;51.000;13.684;2022-08-19T14:42:11;23.80;99.90
3350;DHT22;1688;51.000;13.684;2022-08-19T14:44:37;23.70;99.90
3350;DHT22;1688;51.000;13.684;2022-08-19T14:47:03;23.60;99.90
3350;DHT22;1688;51.000;13.684;2022-08-19T14:49:29;23.50;99.90
3350;DHT22;1688;51.000;13.684;2022-08-19T14:51:55;23.50;99.90
3350;DHT22;1688;51.000;13.684;2022-08-19T14:54:21;23.50;99.90
3350;DHT22;1688;51.000;13.684;2022-08-19T14:56:47;23.50;99.90
3350;DHT22;1688;51.000;13.684;2022-08-19T14:59:13;23.50;99.90
3350;DHT22;1688;51.000;13.684;2022-08-19T15:01:39;23.60;99.90
3350;DHT22;1688;51.000;13.684;2022-08-19T15:04:05;23.60;99.90
3350;DHT22;1688;51.000;13.684;2022-08-19T15:06:32;23.70;99.90
3350;DHT22;1688;51.000;13.684;2022-08-19T15:08:59;23.70;99.90
3350;DHT22;1688;51.000;13.684;2022-08-19T15:11:27;23.70;99.90
3350;DHT22;1688;51.000;13.684;2022-08-19T15:13:57;23.70;99.90
3350;DHT22;1688;51.000;13.684;2022-08-19T15:16:23;23.80;99.90
3350;DHT22;1688;51.000;13.684;2022-08-19T15:18:52;23.90;99.90
3350;DHT22;1688;51.000;13.684;2022-08-19T15:21:19;23.80;99.90
3350;DHT22;1688;51.000;13.684;2022-08-19T15:23:46;23.80;99.90
3350;DHT22;1688;51.000;13.684;2022-08-19T15:26:14;23.90;99.90
3350;DHT22;1688;51.000;13.684;2022-08-19T15:28:41;24.00;99.90
3350;DHT22;1688;51.000;13.684;2022-08-19T15:31:08;24.00;99.90
3350;DHT22;1688;51.000;13.684;2022-08-19T15:33:35;24.00;99.90
3350;DHT22;1688;51.000;13.684;2022-08-19T15:36:05;24.00;99.90
3350;DHT22;1688;51.000;13.684;2022-08-19T15:38:37;24.00;99.90
3350;DHT22;1688;51.000;13.684;2022-08-19T15:41:05;24.00;99.90
3350;DHT22;1688;51.000;13.684;2022-08-19T15:43:54;24.10;99.90
3350;DHT22;1688;51.000;13.684;2022-08-19T15:46:23;24.10;99.90
3350;DHT22;1688;51.000;13.684;2022-08-19T15:48:51;24.10;99.90
3350;DHT22;1688;51.000;13.684;2022-08-19T15:51:18;24.10;99.90
3350;DHT22;1688;51.000;13.684;2022-08-19T15:53:45;24.00;99.90
3350;DHT22;1688;51.000;13.684;2022-08-19T15:56:11;23.90;99.90
3350;DHT22;1688;51.000;13.684;2022-08-19T15:58:37;23.80;99.90
3350;DHT22;1688;51.000;13.684;2022-08-19T16:01:22;23.70;99.90
3350;DHT22;1688;51.000;13.684;2022-08-19T16:03:59;23.70;99.90
3350;DHT22;1688;51.000;13.684;2022-08-19T16:06:52;23.70;99.90